Time;durP1;ratioP1;P1;durP2;ratioP2;P2;SDS_P1;SDS_P2;PMS_P1;PMS_P2;Temp;Humidity;BMP_temperature;BMP_pressure;BME280_temperature;BME280_humidity;BME280_pressure;Samples;Min_cycle;Max_cycle;Signal;HPM_P1;HPM_P2
2022/01/10 00:08:54;;;;;;;60.1;79.5;;;;;;;-4.7;77.3;97990;;;;
2022/01/10 00:18:54;;;;;;;60.1;79.5;;;;;;;-4.7;77.4;98010;;;;
2022/01/10 00:29:54;;;;;;;57.5;69.9;;;;;;;-4.6;78;98020;;;;
2022/01/10 00:39:55;;;;;;;57.5;69.9;;;;;;;-4.6;77.4;98020;;;;
2022/01/10 00:50:54;;;;;;;57.5;69.9;;;;;;;-4.7;77.6;98030;;;;
2022/01/10 01:01:54;;;;;;;64.9;76.9;;;;;;;-4.8;77.6;98050;;;;
2022/01/10 01:12:59;;;;;;;64.9;76.9;;;;;;;-4.7;78.4;98060;;;;
2022/01/10 01:32:55;;;;;;;68.6;85.7;;;;;;;-4.8;78.5;98070;;;;
2022/01/10 01:42:54;;;;;;;68.6;85.7;;;;;;;-4.8;78.6;98080;;;;
2022/01/10 01:53:54;;;;;;;66.5;83.2;;;;;;;-4.8;78.8;98090;;;;
2022/01/10 02:03:54;;;;;;;66.5;83.2;;;;;;;-4.8;79.4;98090;;;;
2022/01/10 02:13:54;;;;;;;66.5;83.2;;;;;;;-4.8;79.2;98090;;;;
2022/01/10 02:23:54;;;;;;;69.6;85.9;;;;;;;-4.8;78.7;98100;;;;
2022/01/10 02:34:54;;;;;;;69.6;85.9;;;;;;;-4.8;78.1;98120;;;;
2022/01/10 02:44:54;;;;;;;69.6;85.9;;;;;;;-4.9;77.6;98130;;;;
2022/01/10 02:55:54;;;;;;;68.3;86.5;;;;;;;-5;77.3;98140;;;;
2022/01/10 03:06:54;;;;;;;68.3;86.5;;;;;;;-5;78.1;98150;;;;
2022/01/10 03:16:54;;;;;;;68.3;86.5;;;;;;;-5;78.2;98160;;;;
2022/01/10 03:26:54;;;;;;;78.5;98.8;;;;;;;-5;78.1;98170;;;;
2022/01/10 03:37:55;;;;;;;78.5;98.8;;;;;;;-5;78;98170;;;;
2022/01/10 03:48:54;;;;;;;78.5;98.8;;;;;;;-5.1;77.8;98180;;;;
2022/01/10 03:58:54;;;;;;;70.1;84.9;;;;;;;-5.1;77.5;98200;;;;
2022/01/10 04:09:54;;;;;;;70.1;84.9;;;;;;;-5.2;77.1;98210;;;;
2022/01/10 04:19:55;;;;;;;70.1;84.9;;;;;;;-5.2;77;98230;;;;
2022/01/10 04:30:54;;;;;;;62.5;74.1;;;;;;;-5.4;76.8;98260;;;;
2022/01/10 04:40:55;;;;;;;62.5;74.1;;;;;;;-5.5;78.8;98270;;;;
2022/01/10 04:51:55;;;;;;;72.6;91.3;;;;;;;-5.5;79.4;98280;;;;
2022/01/10 05:02:55;;;;;;;72.6;91.3;;;;;;;-5.4;80.1;98310;;;;
2022/01/10 05:12:55;;;;;;;72.6;91.3;;;;;;;-5.3;79.5;98320;;;;
2022/01/10 05:23:55;;;;;;;73.6;87.5;;;;;;;-5.3;79.7;98330;;;;
2022/01/10 05:34:55;;;;;;;73.6;87.5;;;;;;;-5.2;79.5;98350;;;;
2022/01/10 05:45:55;;;;;;;73.6;87.5;;;;;;;-5.2;79.2;98380;;;;
2022/01/10 05:55:55;;;;;;;64.3;81.4;;;;;;;-5.2;79.8;98410;;;;
2022/01/10 06:06:55;;;;;;;64.3;81.4;;;;;;;-5.1;79.3;98420;;;;
2022/01/10 06:16:55;;;;;;;64.3;81.4;;;;;;;-5.2;78.8;98450;;;;
2022/01/10 06:26:55;;;;;;;63.3;80.9;;;;;;;-5.1;78.4;98470;;;;
2022/01/10 06:36:55;;;;;;;63.3;80.9;;;;;;;-5.2;78.5;98490;;;;
2022/01/10 06:46:55;;;;;;;63.3;80.9;;;;;;;-5.3;78.8;98520;;;;
2022/01/10 06:56:58;;;;;;;62.4;82.5;;;;;;;-5.4;79.5;98540;;;;
2022/01/10 07:06:55;;;;;;;62.4;82.5;;;;;;;-5.2;79;98560;;;;
2022/01/10 07:17:55;;;;;;;62.4;82.5;;;;;;;-5;78.7;98580;;;;
2022/01/10 07:28:55;;;;;;;56;68.7;;;;;;;-4.9;77.9;98600;;;;
2022/01/10 07:39:55;;;;;;;56;68.7;;;;;;;-5;77.9;98620;;;;
2022/01/10 07:49:55;;;;;;;56;68.7;;;;;;;-5.1;78.7;98640;;;;
2022/01/10 07:59:55;;;;;;;68;80.6;;;;;;;-5.1;79.4;98660;;;;
2022/01/10 08:09:55;;;;;;;68;80.6;;;;;;;-5.1;80;98680;;;;
2022/01/10 08:20:55;;;;;;;73.8;90.1;;;;;;;-5;79.7;98720;;;;
2022/01/10 08:31:55;;;;;;;73.8;90.1;;;;;;;-4.6;80;98730;;;;
2022/01/10 08:41:55;;;;;;;73.8;90.1;;;;;;;-4.5;79.7;98750;;;;
2022/01/10 08:52:55;;;;;;;71.2;82.1;;;;;;;-4.5;80.6;98770;;;;
2022/01/10 09:02:55;;;;;;;71.2;82.1;;;;;;;-4.1;80.5;98780;;;;
2022/01/10 09:12:55;;;;;;;71.2;82.1;;;;;;;-3.9;79.6;98800;;;;
2022/01/10 09:22:55;;;;;;;73.6;94;;;;;;;-4;79.8;98800;;;;
2022/01/10 09:32:55;;;;;;;73.6;94;;;;;;;-3.6;79.3;98800;;;;
2022/01/10 09:42:56;;;;;;;73.6;94;;;;;;;-3.2;79;98810;;;;
2022/01/10 09:52:55;;;;;;;68.6;84.7;;;;;;;-2.6;78.7;98810;;;;
2022/01/10 10:02:55;;;;;;;68.6;84.7;;;;;;;-2.3;78.6;98820;;;;
2022/01/10 10:13:56;;;;;;;68.6;84.7;;;;;;;-1.7;77.6;98820;;;;
2022/01/10 10:24:55;;;;;;;45.4;53.5;;;;;;;-1.4;78.2;98840;;;;
2022/01/10 10:35:55;;;;;;;45.4;53.5;;;;;;;-1.3;77.5;98850;;;;
2022/01/10 10:45:55;;;;;;;45.4;53.5;;;;;;;-1.3;77.3;98860;;;;
2022/01/10 10:55:55;;;;;;;38.2;45;;;;;;;-1.6;77.7;98880;;;;
2022/01/10 11:05:57;;;;;;;38.2;45;;;;;;;-1.8;77.8;98890;;;;
2022/01/10 11:15:55;;;;;;;38.2;45;;;;;;;-1.9;77.9;98900;;;;
2022/01/10 11:26:55;;;;;;;45.1;52.7;;;;;;;-1.4;76.7;98910;;;;
2022/01/10 11:36:55;;;;;;;45.1;52.7;;;;;;;-1.2;77;98910;;;;
2022/01/10 11:47:55;;;;;;;45.1;52.7;;;;;;;-1.3;76.4;98930;;;;
2022/01/10 11:58:56;;;;;;;44.6;59.7;;;;;;;-1.1;75.4;98950;;;;
2022/01/10 12:09:55;;;;;;;44.6;59.7;;;;;;;-1.2;75.9;98960;;;;
2022/01/10 12:19:55;;;;;;;40.1;50.2;;;;;;;-1.3;76.3;98970;;;;
2022/01/10 12:29:55;;;;;;;40.1;50.2;;;;;;;-1.2;76.8;98980;;;;
2022/01/10 12:39:56;;;;;;;40.1;50.2;;;;;;;-1;76.5;99000;;;;
2022/01/10 12:50:55;;;;;;;38.1;48.2;;;;;;;-1.2;77.1;99020;;;;
2022/01/10 13:00:55;;;;;;;38.1;48.2;;;;;;;-1.2;77.3;99050;;;;
2022/01/10 13:12:02;;;;;;;38.1;48.2;;;;;;;-1.3;77.8;99070;;;;
2022/01/10 13:22:55;;;;;;;35;40.9;;;;;;;-1.2;78;99080;;;;
2022/01/10 13:32:55;;;;;;;35;40.9;;;;;;;-1;77.8;99100;;;;
2022/01/10 13:43:55;;;;;;;35;40.9;;;;;;;-0.9;77.7;99110;;;;
2022/01/10 13:54:55;;;;;;;35.9;41.6;;;;;;;-1;77.9;99130;;;;
2022/01/10 14:05:55;;;;;;;35.9;41.6;;;;;;;-0.9;77.8;99160;;;;
2022/01/10 14:15:55;;;;;;;35.9;41.6;;;;;;;-0.8;77.8;99180;;;;
2022/01/10 14:26:55;;;;;;;32.4;38.2;;;;;;;-1.1;79.3;99200;;;;
2022/01/10 14:37:55;;;;;;;32.4;38.2;;;;;;;-0.9;79.1;99220;;;;
2022/01/10 14:48:55;;;;;;;36.1;45.3;;;;;;;-1;79.9;99240;;;;
2022/01/10 14:58:55;;;;;;;36.1;45.3;;;;;;;-1;80.4;99250;;;;
2022/01/10 15:08:55;;;;;;;36.1;45.3;;;;;;;-1;80.5;99270;;;;
2022/01/10 15:18:55;;;;;;;34.3;39;;;;;;;-0.9;80.3;99290;;;;
2022/01/10 15:29:55;;;;;;;34.3;39;;;;;;;-0.9;80.9;99300;;;;
2022/01/10 15:40:55;;;;;;;34.3;39;;;;;;;-0.8;80.7;99320;;;;
2022/01/10 15:51:55;;;;;;;33.4;38.2;;;;;;;-0.6;79.9;99340;;;;
2022/01/10 16:01:55;;;;;;;33.4;38.2;;;;;;;-0.7;80.2;99360;;;;
2022/01/10 16:12:55;;;;;;;33.4;38.2;;;;;;;-0.7;80.5;99380;;;;
2022/01/10 16:23:55;;;;;;;30.8;36.1;;;;;;;-0.8;80.4;99400;;;;
2022/01/10 16:34:56;;;;;;;30.8;36.1;;;;;;;-0.6;79.1;99420;;;;
2022/01/10 16:45:55;;;;;;;30.8;36.1;;;;;;;-0.8;78.6;99430;;;;
2022/01/10 16:55:55;;;;;;;23.6;26.9;;;;;;;-0.9;77.4;99450;;;;
2022/01/10 17:05:55;;;;;;;23.6;26.9;;;;;;;-0.8;77.3;99470;;;;
2022/01/10 17:15:57;;;;;;;23.6;26.9;;;;;;;-0.8;76.5;99480;;;;
2022/01/10 17:25:55;;;;;;;23.4;28.3;;;;;;;-0.8;76.4;99490;;;;
2022/01/10 17:35:55;;;;;;;23.4;28.3;;;;;;;-0.6;76.3;99510;;;;
2022/01/10 18:06:55;;;;;;;22.7;26.3;;;;;;;-0.7;75.5;99550;;;;
2022/01/10 18:16:57;;;;;;;22.7;26.3;;;;;;;-0.8;75.4;99560;;;;
2022/01/10 18:27:55;;;;;;;25.3;29.9;;;;;;;-0.7;75.1;99580;;;;
2022/01/10 18:37:56;;;;;;;25.3;29.9;;;;;;;-0.6;74.9;99590;;;;
2022/01/10 18:47:55;;;;;;;26;31.1;;;;;;;-0.5;75;99600;;;;
2022/01/10 18:58:55;;;;;;;26;31.1;;;;;;;-0.7;75;99620;;;;
2022/01/10 19:08:55;;;;;;;26;31.1;;;;;;;-0.8;74.9;99640;;;;
2022/01/10 19:18:55;;;;;;;21.8;26.3;;;;;;;-1;74.8;99660;;;;
2022/01/10 19:29:55;;;;;;;21.8;26.3;;;;;;;-0.9;74.7;99670;;;;
2022/01/10 19:40:55;;;;;;;21.8;26.3;;;;;;;-0.8;74.7;99680;;;;
2022/01/10 19:50:55;;;;;;;17.9;20.5;;;;;;;-0.9;74.6;99690;;;;
2022/01/10 20:00:56;;;;;;;17.9;20.5;;;;;;;-1.2;75;99710;;;;
2022/01/10 20:10:56;;;;;;;17.9;20.5;;;;;;;-1.3;75.2;99720;;;;
2022/01/10 20:21:55;;;;;;;19.4;24.5;;;;;;;-1.3;73.8;99730;;;;
2022/01/10 20:31:56;;;;;;;19.4;24.5;;;;;;;-1.4;73;99740;;;;
2022/01/10 20:42:55;;;;;;;19.4;24.5;;;;;;;-1.5;72.5;99750;;;;
2022/01/10 20:52:55;;;;;;;16.5;20.2;;;;;;;-1.4;72.7;99770;;;;
2022/01/10 21:02:56;;;;;;;16.5;20.2;;;;;;;-1.3;72.6;99780;;;;
2022/01/10 21:12:55;;;;;;;16.5;20.2;;;;;;;-1.3;72.4;99800;;;;
2022/01/10 21:23:55;;;;;;;25.7;32.4;;;;;;;-1.4;71.7;99810;;;;
2022/01/10 21:34:55;;;;;;;25.7;32.4;;;;;;;-1.5;71.5;99820;;;;
2022/01/10 21:45:55;;;;;;;25.7;32.4;;;;;;;-1.3;71;99830;;;;
2022/01/10 21:56:55;;;;;;;32.4;41.8;;;;;;;-1.3;71;99840;;;;
2022/01/10 22:07:55;;;;;;;32.4;41.8;;;;;;;-1.4;71.2;99860;;;;
2022/01/10 22:17:55;;;;;;;31.4;36.5;;;;;;;-1.3;70.8;99870;;;;
2022/01/10 22:28:56;;;;;;;31.4;36.5;;;;;;;-1.4;70.8;99880;;;;
2022/01/10 22:39:55;;;;;;;31.4;36.5;;;;;;;-1.4;71;99890;;;;
2022/01/10 22:49:55;;;;;;;25.6;31.2;;;;;;;-1.2;70.2;99900;;;;
2022/01/10 23:00:55;;;;;;;25.6;31.2;;;;;;;-1.4;69.4;99910;;;;
2022/01/10 23:11:55;;;;;;;25.6;31.2;;;;;;;-1.5;67.8;99910;;;;
2022/01/10 23:21:55;;;;;;;27.7;34.3;;;;;;;-1.5;67.6;99930;;;;
2022/01/10 23:32:55;;;;;;;27.7;34.3;;;;;;;-1.5;67.8;99940;;;;
2022/01/10 23:42:55;;;;;;;27.7;34.3;;;;;;;-1.6;67;99950;;;;
2022/01/10 23:53:55;;;;;;;24.4;29;;;;;;;-1.5;66.6;99950;;;;
